Campiña-Pas de vigilance météorologique particuliére.   -   Il n'y a aucun avertissement

Nearby METAR Reports

 

LEZL - Sevilla, Spain
Distance from station: ENE 8km
Mise à jour: 28/05/2020 03:30
clair
clair
 Wind from NE
Vent: NE 15 km/h
Température: 21°C
Point de rosée: 11°C
Humidité: 53%
Baromètre: 1018 hPa
Résumé: clair
Visibility: greater than 10 km
2020/05/28 01:30 LEZL 280130Z AUTO 05008KT CAVOK 21/11 Q1018
LEMO - Morón, Spain
Distance from station: SE 43km
Mise à jour: 28/05/2020 03:00
clair
clair
 Wind from E
Vent: E 17 km/h
Température: 21°C
Point de rosée: 9°C
Humidité: 46%
Baromètre: 1019 hPa
Résumé: clair
Visibility: greater than 10 km
2020/05/28 01:00 LEMO 280100Z 08009KT CAVOK 21/09 Q1019 NOSIG
LEJR - Jeréz, Spain
Distance from station: S 71km
Mise à jour: 28/05/2020 03:30
clair
clair
 Wind from E
Vent: E 15 km/h
Température: 22°C
Point de rosée: 7°C
Humidité: 38%
Baromètre: 1018 hPa
Résumé: clair
Visibility: greater than 10 km
2020/05/28 01:30 LEJR 280130Z AUTO 09008KT 060V140 CAVOK 22/07 Q1018
 
LERT - Rota, Spain
Distance from station: SSO 89km
Mise à jour: 28/05/2020 03:00
clair
clair
 Wind from ENE
Vent: ENE 13 km/h
Température: 20°C
Point de rosée: 10°C
Humidité: 53%
Baromètre: 1017 hPa
Clouds: clair
Visibility: 10 km
2020/05/28 01:00 LERT 280100Z AUTO 06007KT 030V100 9999 NCD 20/10 Q1017
LEMG - Málaga, Spain
Distance from station: ESE 157km
Mise à jour: 28/05/2020 03:30
clair
clair
 Wind from O
Vent: O 7 km/h
Température: 18°C
Point de rosée: 15°C
Humidité: 83%
Baromètre: 1021 hPa
Résumé: clair
Visibility: greater than 10 km
2020/05/28 01:30 LEMG 280130Z 28004KT CAVOK 18/15 Q1021 NOSIG
LEBA - Córdoba, Spain
Distance from station: ENE 115km
Mise à jour: 28/05/2020 03:30
clair
clair
 Wind from SSO
Vent: SSO 6 km/h
Température: 17°C
Point de rosée: 12°C
Humidité: 73%
Baromètre: 1020 hPa
Résumé: clair
Visibility: greater than 10 km
2020/05/28 01:30 LEBA 280130Z AUTO 21003KT CAVOK 17/12 Q1020
 
LEGR - Granada, Spain
Distance from station: E 198km
Mise à jour: 28/05/2020 03:30
clair
clair
 Wind from calm
Vent: calme
Température: 17°C
Point de rosée: 10°C
Humidité: 64%
Baromètre: 1022 hPa
Résumé: clair
Visibility: greater than 10 km
2020/05/28 01:30 LEGR 280130Z AUTO 00000KT CAVOK 17/10 Q1022
LEAM - Almería, Spain
Distance from station: E 326km
Mise à jour: 28/05/2020 03:30
clair
clair
 Wind from varies
Vent: varies 7 km/h
Température: 23°C
Point de rosée: 9°C
Humidité: 41%
Baromètre: 1020 hPa
Résumé: clair
Visibility: greater than 10 km
2020/05/28 01:30 LEAM 280130Z AUTO VRB04KT CAVOK 23/09 Q1020
LEMD - Madrid/Barajas, Spain
Distance from station: NNE 402km
Mise à jour: 28/05/2020 03:30
clair
clair
 Wind from varies
Vent: varies 4 km/h
Température: 18°C
Point de rosée: 10°C
Humidité: 60%
Baromètre: 1026 hPa
Résumé: clair
Visibility: greater than 10 km
2020/05/28 01:30 LEMD 280130Z VRB02KT CAVOK 18/10 Q1026 NOSIG
 
LEVD - Valladolid, Spain
Distance from station: N 492km
Mise à jour: 28/05/2020 03:30
clair
clair
 Wind from SE
Vent: SE 9 km/h
Température: 14°C
Point de rosée: 11°C
Humidité: 82%
Baromètre: 1025 hPa
Résumé: clair
Visibility: greater than 10 km
2020/05/28 01:30 LEVD 280130Z AUTO 13005KT CAVOK 14/11 Q1025
LEBL - Barcelona, Spain
Distance from station: NE 816km
Mise à jour: 28/05/2020 03:30
partiellement nuageux
partiellement nuageux
 Wind from E
Vent: E 7 km/h
Température: 20°C
Point de rosée: 17°C
Humidité: 83%
Baromètre: 1027 hPa
Clouds: partiellement nuageux
Visibility: 10 km
Cloud details: partiellement nuageux 396 m
partiellement nuageux 579 m
2020/05/28 01:30 LEBL 280130Z 08004KT 9999 SCT013 SCT019 20/17 Q1027 NOSIG
LEVC - Valencia, Spain
Distance from station: ENE 535km
Mise à jour: 28/05/2020 03:30
Few Clouds
Few Clouds
 Wind from NO
Vent: NO 9 km/h
Température: 19°C
Point de rosée: 17°C
Humidité: 88%
Baromètre: 1026 hPa
Clouds: Few Clouds
Visibility: 10 km
Cloud details: Few Clouds 610 m
2020/05/28 01:30 LEVC 280130Z 31005KT 9999 FEW020 19/17 Q1026 NOSIG